Startpagina
METAR-TAF:

METAR-TAF

Vliegvelden :

Internationale Luchthaven Oostende-Brugge

Oostende, België

breedte: 51-12N, lengte: 002-52E, hoogte: 4 m

Actueel weer

Dit bericht is 41 minuten geleden gemaakt, om 13:20 UTC
Wind 22 kt uit het westzuidwesten met uitschieters tot 33 kt
Temperatuur 11°C
Vochtigheid 82%
Druk 1024 hPa
Zicht 10 km of meer
Weinig wolken op 2400 ft

METAR: EBOS 291320Z 25022G33KT 9999 FEW024 11/08 Q1024 NOSIG

Tijdstip: 15:01 (14:01 UTC)

Verwachting

Dit bericht is 2 uur en het 45 minuten geleden gemaakt, om 11:16 UTC
Verwachting geldig van 29 om 12 UTC tot 30 om 18 UTC
Wind 15 kt uit het westzuidwesten met uitschieters tot 25 kt
Zicht 10 km of meer
Verspreide wolken op 2000 ft
Wijzigt naar
van 29 om 17 UTC tot 29 om 19 UTC
Wind 15 kt uit het westnoordwesten
Wijzigt naar
van 30 om 10 UTC tot 30 om 13 UTC
Wind 7 kt uit het westen

TAF: EBOS 291116Z 2912/3018 25015G25KT 9999 SCT020 BECMG 2917/2919 30015KT BECMG 3010/3013 27007KT

Waarnemingen en weersverwachtingen van meer dan 4000 vliegvelden (METAR en TAF).

De beschikbare stations zijn de gele en rode punten op de kaart.

Ga met uw muis naar het station om de naam te zien.

Klik dan om waarnemingen en weersverwachtingen te zien.

kaart wijzigen: klik op de groene knoppen met een zwart kruis om in te zoomen, op de groene knop met een streepje om uit te zoomen of op de groene pijlen voor aangrenzende kaarten.


METAR-TAF: